Time;durP1;ratioP1;P1;durP2;ratioP2;P2;SDS_P1;SDS_P2;PMS_P1;PMS_P2;Temp;Humidity;BMP_temperature;BMP_pressure;BME280_temperature;BME280_humidity;BME280_pressure;Samples;Min_cycle;Max_cycle;Signal;HPM_P1;HPM_P2
2022/07/21 00:01:01;;;;;;;8.65;2.22;;;;;;;22.88;64.29;100750.22;2102155;28;20088;-75
2022/07/21 00:02:23;;;;;;;6.43;1.83;;;;;;;22.90;64.08;100748.38;2102213;28;20079;-75
2022/07/21 00:03:46;;;;;;;6.80;1.85;;;;;;;22.90;64.19;100755.56;2101855;28;20052;-75
2022/07/21 00:05:08;;;;;;;10.75;1.83;;;;;;;22.91;64.34;100746.53;2102079;28;20390;-75
2022/07/21 00:06:31;;;;;;;8.13;1.80;;;;;;;22.89;64.29;100752.00;2102053;28;20056;-75
2022/07/21 00:07:53;;;;;;;10.07;2.30;;;;;;;22.90;64.26;100742.09;2102166;28;20067;-75
2022/07/21 00:09:16;;;;;;;9.38;2.47;;;;;;;22.91;64.19;100755.50;2110592;28;20086;-75
2022/07/21 00:10:38;;;;;;;10.43;2.10;;;;;;;22.93;64.18;100741.97;2104562;28;20602;-75
2022/07/21 00:12:00;;;;;;;7.03;1.85;;;;;;;22.90;64.14;100744.78;2102165;28;20040;-74
2022/07/21 00:13:22;;;;;;;9.68;1.80;;;;;;;22.92;64.15;100745.59;2110332;28;20507;-75
2022/07/21 00:14:44;;;;;;;12.45;2.28;;;;;;;22.92;64.13;100741.09;2096608;28;20601;-74
2022/07/21 00:16:09;;;;;;;7.72;2.70;;;;;;;22.95;64.13;100737.44;2099472;28;20501;-75
2022/07/21 00:17:30;;;;;;;9.23;1.95;;;;;;;22.94;64.30;100741.06;2093147;28;20052;-75
2022/07/21 00:18:56;;;;;;;9.88;1.77;;;;;;;22.93;64.31;100736.59;2100245;28;20040;-75
2022/07/21 00:20:19;;;;;;;8.73;2.05;;;;;;;22.89;64.43;100733.16;2102013;28;20089;-75
2022/07/21 00:21:41;;;;;;;10.57;2.10;;;;;;;22.88;64.56;100730.50;2093807;28;20048;-74
2022/07/21 00:23:04;;;;;;;7.28;1.92;;;;;;;22.87;64.40;100729.63;2099324;28;20054;-74
2022/07/21 00:24:25;;;;;;;7.78;1.80;;;;;;;22.90;64.54;100734.91;2102044;28;20445;-74
2022/07/21 00:25:49;;;;;;;5.35;2.00;;;;;;;22.90;64.31;100726.84;2101725;28;20044;-74
2022/07/21 00:27:10;;;;;;;10.45;1.98;;;;;;;22.92;64.28;100726.75;2110547;28;20046;-74
2022/07/21 00:28:33;;;;;;;9.40;1.83;;;;;;;22.90;64.33;100731.34;2096332;28;20045;-74
2022/07/21 00:29:56;;;;;;;13.82;1.98;;;;;;;22.88;64.38;100731.38;2099416;28;20152;-75
2022/07/21 00:31:20;;;;;;;8.38;2.28;;;;;;;22.89;64.29;100726.88;2102088;28;20045;-76
2022/07/21 00:32:43;;;;;;;6.85;1.60;;;;;;;22.87;64.42;100732.31;2102148;28;20673;-75
2022/07/21 00:34:05;;;;;;;6.38;1.88;;;;;;;22.89;64.31;100726.88;2102047;28;20571;-75
2022/07/21 00:35:28;;;;;;;7.20;2.10;;;;;;;22.87;64.44;100731.44;2102057;28;20074;-73
2022/07/21 00:36:50;;;;;;;11.75;2.40;;;;;;;22.85;64.49;100734.16;2102131;28;20473;-74
2022/07/21 00:38:12;;;;;;;7.32;2.10;;;;;;;22.83;64.56;100724.41;2101435;28;20647;-74
2022/07/21 00:39:34;;;;;;;7.03;1.88;;;;;;;22.86;64.45;100727.84;2110549;28;20417;-74
2022/07/21 00:40:57;;;;;;;6.13;2.30;;;;;;;22.88;64.35;100723.31;2096407;28;20055;-74
2022/07/21 00:42:22;;;;;;;7.32;1.67;;;;;;;22.90;64.22;100717.88;2090997;28;20131;-74
2022/07/21 00:43:45;;;;;;;10.60;2.20;;;;;;;22.88;64.20;100719.72;2100377;28;20040;-74
2022/07/21 00:45:07;;;;;;;8.55;1.90;;;;;;;22.89;64.17;100725.06;2101715;28;20044;-74
2022/07/21 00:46:31;;;;;;;15.43;2.40;;;;;;;22.90;64.00;100721.44;2110482;28;20046;-74
2022/07/21 00:47:54;;;;;;;9.05;1.98;;;;;;;22.88;64.29;100723.31;2113157;28;20051;-74
2022/07/21 00:49:16;;;;;;;9.05;1.83;;;;;;;22.86;64.44;100714.41;2101911;28;20051;-74
2022/07/21 00:50:39;;;;;;;7.50;2.28;;;;;;;22.81;64.65;100713.69;2110257;28;20082;-75
2022/07/21 00:52:01;;;;;;;6.25;1.75;;;;;;;22.84;64.76;100715.41;2104555;28;20088;-75
2022/07/21 00:53:24;;;;;;;6.65;1.75;;;;;;;22.89;64.70;100726.88;2101721;28;20088;-74
2022/07/21 00:54:46;;;;;;;9.43;2.00;;;;;;;22.91;64.43;100725.00;2102051;28;20047;-74
2022/07/21 00:56:08;;;;;;;;;;;;;;;22.90;64.47;100717.88;2102561;28;20052;-74
2022/07/21 00:57:30;;;;;;;9.68;2.10;;;;;;;22.89;64.51;100718.81;2101985;28;19931;-75
2022/07/21 00:58:52;;;;;;;;;;;;;;;22.82;64.71;100719.94;2102129;28;20063;-74
2022/07/21 01:00:17;;;;;;;7.65;1.77;;;;;;;22.79;64.91;100726.31;2093518;28;20343;-74
2022/07/21 01:01:41;;;;;;;9.57;2.00;;;;;;;22.80;64.90;100717.31;2100033;28;20721;-75
2022/07/21 01:03:04;;;;;;;9.40;2.00;;;;;;;22.82;64.93;100725.34;2101742;28;20572;-74
2022/07/21 01:04:26;;;;;;;7.60;1.77;;;;;;;22.83;64.82;100722.59;2102063;28;20055;-74
2022/07/21 01:05:49;;;;;;;13.20;1.95;;;;;;;22.83;64.68;100719.91;2093604;28;20049;-75
2022/07/21 01:07:11;;;;;;;9.40;2.00;;;;;;;22.84;64.73;100710.03;2099477;28;20507;-74
2022/07/21 01:08:33;;;;;;;6.80;2.00;;;;;;;22.83;64.75;100717.22;2085030;28;20045;-74
2022/07/21 01:09:56;;;;;;;8.32;1.67;;;;;;;22.82;64.88;100723.53;2097092;28;20067;-75
2022/07/21 01:11:20;;;;;;;5.40;1.90;;;;;;;22.81;64.87;100721.75;2103581;28;20058;-75
2022/07/21 01:12:42;;;;;;;10.27;1.85;;;;;;;22.82;64.88;100715.44;2103559;28;20397;-74
2022/07/21 01:14:05;;;;;;;6.45;1.70;;;;;;;22.82;64.84;100712.75;2103155;28;20093;-74
2022/07/21 01:15:26;;;;;;;7.47;1.45;;;;;;;22.83;64.76;100719.91;2103771;28;20044;-74
2022/07/21 01:16:51;;;;;;;7.18;2.13;;;;;;;22.83;64.82;100714.53;2103547;28;20169;-74
2022/07/21 01:18:14;;;;;;;8.45;2.10;;;;;;;22.83;64.88;100711.81;2103457;28;20036;-74
2022/07/21 01:19:35;;;;;;;9.18;1.90;;;;;;;22.81;64.65;100711.00;2103617;28;20047;-74
2022/07/21 01:21:04;;;;;;;9.85;2.17;;;;;;;22.81;64.95;100708.31;2103200;28;20136;-74
2022/07/21 01:22:28;;;;;;;11.40;2.10;;;;;;;22.83;64.72;100708.25;2095757;28;20067;-74
2022/07/21 01:23:51;;;;;;;6.93;1.95;;;;;;;22.83;64.82;100708.25;2100829;28;20060;-74
2022/07/21 01:25:13;;;;;;;16.85;1.95;;;;;;;22.83;64.72;100711.81;2103542;28;20092;-75
2022/07/21 01:26:42;;;;;;;6.15;1.80;;;;;;;22.81;64.71;100716.38;2094790;28;20053;-75
2022/07/21 01:28:04;;;;;;;8.10;2.00;;;;;;;22.77;65.02;100717.44;2102163;28;20051;-74
2022/07/21 01:29:26;;;;;;;7.25;1.65;;;;;;;22.75;65.23;100708.53;2103393;28;20622;-74
2022/07/21 01:30:50;;;;;;;8.38;2.00;;;;;;;22.76;65.12;100712.09;2103145;28;20093;-74
2022/07/21 01:32:11;;;;;;;8.57;1.90;;;;;;;22.78;65.20;100713.78;2095324;28;20058;-74
2022/07/21 01:33:34;;;;;;;8.05;1.70;;;;;;;22.79;65.10;100710.16;2103344;28;20071;-74
2022/07/21 01:34:56;;;;;;;6.68;2.13;;;;;;;22.80;65.25;100713.72;2102774;28;20081;-74
2022/07/21 01:36:19;;;;;;;5.55;1.75;;;;;;;22.79;65.26;100709.28;2103355;28;20040;-73
2022/07/21 01:37:45;;;;;;;6.63;2.13;;;;;;;22.78;65.45;100703.00;2103543;28;20052;-74
2022/07/21 01:42:28;;;;;;;6.65;1.85;;;;;;;22.79;65.48;100704.78;2097440;28;20145;-74
2022/07/21 01:43:50;;;;;;;8.77;1.85;;;;;;;22.80;65.45;100706.53;2092461;28;20411;-74
2022/07/21 01:45:12;;;;;;;8.48;1.90;;;;;;;22.80;65.40;100695.78;2100605;28;20425;-75
2022/07/21 01:46:37;;;;;;;11.05;1.90;;;;;;;22.83;65.40;100703.75;2103250;28;20084;-74
2022/07/21 01:48:00;;;;;;;7.40;2.15;;;;;;;22.86;65.22;100695.53;2095209;28;20456;-74
2022/07/21 01:49:22;;;;;;;9.75;1.70;;;;;;;22.88;65.30;100696.38;2100378;28;20051;-74
2022/07/21 01:50:45;;;;;;;6.10;1.80;;;;;;;22.93;65.30;100698.91;2095027;28;20040;-73
2022/07/21 01:52:06;;;;;;;6.88;2.10;;;;;;;22.92;65.40;100689.06;2100655;28;20040;-74
2022/07/21 01:53:31;;;;;;;11.88;1.92;;;;;;;22.91;65.36;100695.38;2103025;28;20505;-74
2022/07/21 01:54:52;;;;;;;8.32;1.80;;;;;;;22.91;65.43;100692.69;2095034;28;20414;-74
2022/07/21 01:56:16;;;;;;;5.25;1.50;;;;;;;22.91;65.29;100704.34;2100278;28;20058;-74
2022/07/21 01:57:37;;;;;;;6.07;1.98;;;;;;;22.94;65.14;100701.53;2103276;28;20055;-74
2022/07/21 01:59:00;;;;;;;6.22;1.98;;;;;;;22.93;65.11;100699.78;2111491;28;20044;-74
2022/07/21 02:00:24;;;;;;;12.60;2.00;;;;;;;22.92;65.00;100694.44;2105742;28;20056;-74
2022/07/21 02:01:46;;;;;;;10.60;2.05;;;;;;;22.91;64.97;100701.63;2103091;28;20059;-74
2022/07/21 02:03:09;;;;;;;9.18;1.92;;;;;;;22.90;64.94;100699.03;2102799;28;20044;-74
2022/07/21 02:04:30;;;;;;;7.60;1.77;;;;;;;22.90;64.93;100691.84;2111347;28;20081;-74
2022/07/21 02:05:53;;;;;;;10.63;1.98;;;;;;;22.89;64.84;100687.38;2105654;28;20154;-74
2022/07/21 02:07:17;;;;;;;8.07;1.67;;;;;;;22.89;65.01;100689.19;2103186;28;20085;-74
2022/07/21 02:08:42;;;;;;;9.10;1.60;;;;;;;22.90;65.04;100693.66;2094705;28;20094;-74
2022/07/21 02:10:05;;;;;;;11.68;2.10;;;;;;;22.91;64.88;100692.69;2100467;28;20047;-74
2022/07/21 02:11:27;;;;;;;4.05;1.60;;;;;;;22.93;64.78;100691.69;2103326;28;20043;-74
2022/07/21 02:12:50;;;;;;;;;;;;;;;22.89;64.86;100691.88;2103460;28;20055;-75
2022/07/21 02:14:11;;;;;;;11.65;2.35;;;;;;;22.88;64.93;100688.31;2103108;28;19924;-74
2022/07/21 02:15:34;;;;;;;6.75;1.70;;;;;;;22.89;64.81;100679.31;2103005;28;20044;-74
2022/07/21 02:16:57;;;;;;;13.05;2.40;;;;;;;22.90;64.83;100690.94;2093949;28;20048;-74
2022/07/21 02:18:18;;;;;;;7.30;2.00;;;;;;;22.91;64.70;100698.06;2100351;28;20367;-74
2022/07/21 02:19:41;;;;;;;4.93;1.67;;;;;;;22.90;64.83;100688.25;2102819;28;20060;-73
2022/07/21 02:21:03;;;;;;;11.68;2.25;;;;;;;22.89;64.71;100679.31;2102484;28;20051;-74
2022/07/21 02:22:26;;;;;;;12.68;2.38;;;;;;;22.88;64.74;100693.69;2102860;28;20048;-73
2022/07/21 02:23:50;;;;;;;7.35;1.70;;;;;;;22.89;64.74;100697.25;2102421;28;20056;-74
2022/07/21 02:25:12;;;;;;;4.78;2.03;;;;;;;22.88;64.74;100693.69;2102741;28;20052;-74
2022/07/21 02:26:34;;;;;;;5.57;1.80;;;;;;;22.88;64.75;100695.50;2102852;28;20079;-73
2022/07/21 02:27:57;;;;;;;10.75;1.75;;;;;;;22.85;64.75;100701.84;2094568;28;20055;-73
2022/07/21 02:29:18;;;;;;;9.02;2.30;;;;;;;22.84;64.74;100699.25;2100224;28;20048;-74
2022/07/21 02:30:42;;;;;;;7.75;1.55;;;;;;;22.84;64.65;100701.94;2097001;28;20075;-74
2022/07/21 02:32:06;;;;;;;7.03;1.73;;;;;;;22.84;64.69;100693.88;2103079;28;20036;-74
2022/07/21 02:33:29;;;;;;;10.32;1.65;;;;;;;22.83;64.67;100703.75;2096949;28;20057;-74
2022/07/21 02:34:52;;;;;;;6.78;1.70;;;;;;;22.83;64.68;100698.38;2100423;28;20040;-74
2022/07/21 02:36:13;;;;;;;9.00;1.83;;;;;;;22.80;64.70;100701.16;2102984;28;20044;-74
2022/07/21 02:37:37;;;;;;;10.15;1.70;;;;;;;22.81;64.66;100711.00;2093869;28;20079;-74
2022/07/21 02:39:03;;;;;;;5.70;1.90;;;;;;;22.80;64.62;100698.47;2100567;28;20039;-74
2022/07/21 02:40:26;;;;;;;5.28;2.03;;;;;;;22.81;64.74;100704.72;2095001;28;20048;-74
2022/07/21 02:41:49;;;;;;;9.38;2.10;;;;;;;22.82;64.78;100704.69;2100361;28;20044;-75
2022/07/21 02:43:17;;;;;;;5.85;1.65;;;;;;;22.85;64.55;100693.78;2103588;28;20430;-75
2022/07/21 02:44:38;;;;;;;5.47;1.90;;;;;;;22.85;64.64;100703.66;2102388;28;20462;-75
2022/07/21 02:46:01;;;;;;;8.60;2.20;;;;;;;22.84;64.66;100699.25;2102585;28;20024;-75
2022/07/21 02:47:22;;;;;;;10.38;1.70;;;;;;;22.84;64.65;100701.94;2107889;28;20059;-75
2022/07/21 02:48:45;;;;;;;8.40;1.85;;;;;;;22.85;64.66;100704.56;2106330;28;20576;-74
2022/07/21 02:50:08;;;;;;;11.00;1.92;;;;;;;22.86;64.71;100702.75;2102671;28;20044;-74
2022/07/21 02:51:30;;;;;;;8.70;1.67;;;;;;;22.87;64.69;100697.31;2102235;28;20581;-74
2022/07/21 02:53:03;;;;;;;10.88;2.22;;;;;;;22.89;64.72;100708.03;2096737;28;20060;-74
2022/07/21 02:54:27;;;;;;;8.35;2.65;;;;;;;22.88;64.87;100706.28;2096788;28;20049;-74
2022/07/21 02:55:50;;;;;;;4.85;1.60;;;;;;;22.88;64.87;100708.97;2100277;28;20077;-75
2022/07/21 02:57:12;;;;;;;11.35;1.95;;;;;;;22.86;65.03;100713.50;2094431;28;20071;-73
2022/07/21 02:58:33;;;;;;;7.53;1.40;;;;;;;22.86;65.10;100703.63;2093939;28;20127;-74
2022/07/21 02:59:56;;;;;;;18.67;2.17;;;;;;;22.86;65.15;100711.69;2099884;28;20055;-74
2022/07/21 03:01:19;;;;;;;5.95;2.03;;;;;;;22.87;65.17;100709.88;2102677;28;20048;-74
2022/07/21 03:02:40;;;;;;;8.23;1.60;;;;;;;22.88;65.23;100703.56;2102308;28;20040;-74
2022/07/21 03:04:03;;;;;;;9.80;1.67;;;;;;;22.83;65.28;100711.81;2102533;28;20048;-75
2022/07/21 03:05:24;;;;;;;7.50;1.90;;;;;;;22.81;65.31;100702.91;2102291;28;20100;-74
2022/07/21 03:06:46;;;;;;;11.43;1.90;;;;;;;22.79;65.60;100699.38;2102422;28;20144;-75
2022/07/21 03:08:10;;;;;;;13.77;2.13;;;;;;;22.81;65.79;100702.91;2102554;28;20100;-75
2022/07/21 03:09:34;;;;;;;8.80;1.92;;;;;;;22.83;65.68;100700.19;2102899;28;20123;-74
2022/07/21 03:10:56;;;;;;;12.48;2.00;;;;;;;22.82;65.72;100706.50;2102484;28;20079;-74
2022/07/21 03:12:18;;;;;;;8.98;1.95;;;;;;;22.81;65.81;100711.00;2102619;28;20436;-73
2022/07/21 03:13:40;;;;;;;8.43;1.90;;;;;;;22.80;65.83;100708.34;2102497;28;20047;-74
2022/07/21 03:15:02;;;;;;;9.13;1.67;;;;;;;22.80;65.91;100708.34;2102445;28;20115;-75
2022/07/21 03:16:25;;;;;;;9.73;2.08;;;;;;;22.81;65.86;100719.06;2102482;28;20043;-74
2022/07/21 03:17:46;;;;;;;9.93;2.03;;;;;;;22.83;65.83;100719.03;2102428;28;20067;-74
2022/07/21 03:19:09;;;;;;;9.20;1.92;;;;;;;22.83;65.93;100713.63;2102161;28;20040;-74
2022/07/21 03:20:32;;;;;;;8.90;2.00;;;;;;;22.82;65.97;100710.06;2102569;28;20528;-75
2022/07/21 03:21:54;;;;;;;7.45;1.60;;;;;;;22.83;65.81;100709.13;2102472;28;20600;-74
2022/07/21 03:23:15;;;;;;;7.05;2.97;;;;;;;22.85;65.78;100720.72;2102130;28;20052;-74
2022/07/21 03:24:39;;;;;;;7.47;1.45;;;;;;;22.85;65.52;100717.13;2102194;28;20461;-74
2022/07/21 03:26:02;;;;;;;9.10;2.00;;;;;;;22.83;65.24;100703.75;2102347;28;20375;-74
2022/07/21 03:27:23;;;;;;;13.55;1.80;;;;;;;22.85;65.27;100726.09;2101938;28;20072;-74
2022/07/21 03:28:46;;;;;;;12.48;2.00;;;;;;;22.89;65.07;100714.31;2102409;28;20051;-75
2022/07/21 03:30:09;;;;;;;9.75;2.30;;;;;;;22.92;64.90;100719.56;2102220;28;20044;-74
2022/07/21 03:31:32;;;;;;;9.13;1.92;;;;;;;22.94;64.67;100717.69;2102332;28;20052;-74
2022/07/21 03:32:54;;;;;;;9.45;2.35;;;;;;;22.95;64.67;100723.97;2101948;28;20048;-73
2022/07/21 03:34:16;;;;;;;7.97;1.80;;;;;;;22.99;64.77;100726.47;2093533;28;20048;-74
2022/07/21 03:35:38;;;;;;;9.43;1.70;;;;;;;23.03;64.72;100728.16;2110596;28;20047;-75
2022/07/21 03:37:01;;;;;;;8.70;1.77;;;;;;;23.11;64.77;100713.50;2105032;28;20105;-75
2022/07/21 03:38:24;;;;;;;7.22;1.50;;;;;;;23.18;64.67;100718.59;2104750;28;20048;-74
2022/07/21 03:39:47;;;;;;;7.22;1.75;;;;;;;23.25;64.68;100717.44;2104897;28;20052;-74
2022/07/21 03:41:10;;;;;;;11.20;2.15;;;;;;;23.30;64.41;100725.38;2102053;28;20068;-74
2022/07/21 03:42:31;;;;;;;5.90;1.67;;;;;;;23.32;64.40;100729.75;2102267;28;20052;-74
2022/07/21 03:43:54;;;;;;;4.13;1.40;;;;;;;23.37;64.37;100722.38;2102101;28;20460;-74
2022/07/21 03:45:16;;;;;;;6.50;1.90;;;;;;;23.42;64.12;100722.22;2102409;28;20056;-74
2022/07/21 03:46:38;;;;;;;5.40;1.67;;;;;;;23.45;64.27;100727.47;2101986;28;20051;-74
2022/07/21 03:48:01;;;;;;;6.93;1.70;;;;;;;23.53;64.21;100733.50;2104409;28;20148;-74
2022/07/21 03:49:24;;;;;;;6.50;1.67;;;;;;;23.59;64.05;100732.38;2102545;28;20393;-75
2022/07/21 03:50:46;;;;;;;8.25;1.50;;;;;;;23.66;63.92;100733.91;2102164;28;20047;-74
2022/07/21 03:52:07;;;;;;;9.50;1.70;;;;;;;23.70;63.84;100724.75;2102281;28;20076;-74
2022/07/21 03:53:30;;;;;;;7.95;1.60;;;;;;;23.70;63.95;100720.22;2101998;28;20055;-74
2022/07/21 03:55:07;;;;;;;7.03;1.67;;;;;;;23.79;64.05;100727.97;2101592;28;20076;-75
2022/07/21 03:56:30;;;;;;;8.95;1.63;;;;;;;23.88;64.02;100726.72;2104275;28;20257;-74
2022/07/21 03:57:55;;;;;;;7.25;1.83;;;;;;;23.94;63.76;100723.78;2102252;28;20048;-75
2022/07/21 03:59:18;;;;;;;7.82;1.60;;;;;;;23.97;63.41;100730.84;2102560;28;20054;-74
2022/07/21 04:00:42;;;;;;;11.93;1.95;;;;;;;23.97;63.35;100730.84;2102192;28;20043;-74
2022/07/21 04:02:04;;;;;;;10.60;1.58;;;;;;;23.99;63.27;100737.97;2096286;28;20856;-74
2022/07/21 04:03:26;;;;;;;12.27;1.95;;;;;;;23.98;63.17;100730.81;2096198;28;20044;-73
2022/07/21 04:04:48;;;;;;;8.10;1.70;;;;;;;23.97;63.05;100736.25;2091311;28;20110;-74
2022/07/21 04:06:10;;;;;;;7.90;1.65;;;;;;;23.96;63.07;100738.06;2099619;28;20044;-74
2022/07/21 04:07:32;;;;;;;3.85;1.30;;;;;;;23.98;63.12;100746.09;2101962;28;20071;-74
2022/07/21 04:08:54;;;;;;;7.03;1.50;;;;;;;24.02;63.26;100734.28;2093578;28;20041;-74
2022/07/21 04:10:19;;;;;;;5.28;1.27;;;;;;;24.05;63.13;100736.84;2099648;28;20059;-74
2022/07/21 04:11:41;;;;;;;8.68;1.77;;;;;;;24.09;62.96;100733.94;2102292;28;20055;-75
2022/07/21 04:13:07;;;;;;;6.60;1.40;;;;;;;24.22;62.96;100745.13;2101649;28;20048;-74
2022/07/21 04:14:28;;;;;;;5.15;1.30;;;;;;;24.34;62.76;100735.69;2101970;28;20047;-74
2022/07/21 04:15:50;;;;;;;3.63;1.55;;;;;;;24.43;62.32;100741.56;2101339;28;20044;-74
2022/07/21 04:17:12;;;;;;;5.60;1.48;;;;;;;24.61;61.93;100742.63;2101905;28;20044;-73
2022/07/21 04:18:34;;;;;;;8.95;1.55;;;;;;;24.86;61.42;100737.03;2101784;28;20063;-75
2022/07/21 04:19:57;;;;;;;6.57;1.55;;;;;;;25.08;61.10;100737.88;2101425;28;20737;-74
2022/07/21 04:21:19;;;;;;;5.88;1.52;;;;;;;25.30;60.29;100738.66;2101826;28;20135;-74
2022/07/21 04:22:42;;;;;;;7.15;1.10;;;;;;;25.43;59.95;100736.28;2101104;28;20075;-74
2022/07/21 04:24:05;;;;;;;5.97;1.40;;;;;;;25.51;59.56;100747.63;2093160;28;20461;-74
2022/07/21 04:25:30;;;;;;;8.32;1.48;;;;;;;25.68;59.66;100747.72;2098997;28;20077;-74
2022/07/21 04:26:51;;;;;;;7.95;1.83;;;;;;;25.90;59.04;100755.72;2102092;28;20143;-74
2022/07/21 04:28:14;;;;;;;5.97;1.70;;;;;;;26.11;58.80;100754.69;2101264;28;20776;-75
2022/07/21 04:29:35;;;;;;;11.05;2.80;;;;;;;26.23;58.25;100746.91;2101787;28;20052;-74
2022/07/21 04:30:57;;;;;;;5.78;1.52;;;;;;;26.24;57.93;100748.66;2101981;28;20044;-74
2022/07/21 04:32:19;;;;;;;4.40;1.20;;;;;;;26.19;57.66;100757.00;2101824;28;20097;-74
2022/07/21 04:33:41;;;;;;;7.95;1.38;;;;;;;26.09;57.79;100751.16;2101858;28;20442;-74
2022/07/21 04:35:03;;;;;;;10.82;2.03;;;;;;;26.00;57.81;100746.19;2101940;28;20218;-75
2022/07/21 04:36:26;;;;;;;;;;;;;;;25.88;57.87;100752.19;2102327;28;20155;-75
2022/07/21 04:37:48;;;;;;;;;;;;;;;25.80;58.22;100754.38;2104561;28;19930;-75
2022/07/21 04:39:11;;;;;;;6.40;1.48;;;;;;;25.77;58.61;100751.84;2101340;28;19934;-75
2022/07/21 04:40:35;;;;;;;5.45;1.67;;;;;;;25.77;58.30;100759.94;2101147;28;20044;-74
2022/07/21 04:41:56;;;;;;;6.40;1.55;;;;;;;25.96;58.06;100755.41;2101632;28;20139;-74
2022/07/21 04:43:18;;;;;;;5.80;1.50;;;;;;;26.30;57.67;100753.81;2101078;28;20044;-75
2022/07/21 04:44:40;;;;;;;11.00;1.30;;;;;;;26.67;56.79;100742.00;2102243;28;20079;-74
2022/07/21 04:46:02;;;;;;;4.15;1.05;;;;;;;26.97;55.79;100748.59;2103155;28;20191;-74
2022/07/21 04:47:23;;;;;;;6.53;1.20;;;;;;;27.21;55.21;100749.09;2108205;28;20063;-75
2022/07/21 04:48:46;;;;;;;6.70;1.45;;;;;;;27.41;54.47;100753.44;2110618;28;20062;-75
2022/07/21 04:50:08;;;;;;;6.78;1.58;;;;;;;27.59;53.67;100755.19;2103311;28;20129;-75
2022/07/21 04:51:31;;;;;;;19.05;4.38;;;;;;;27.79;53.29;100754.97;2111562;28;20048;-75
2022/07/21 04:52:54;;;;;;;4.15;1.02;;;;;;;28.06;52.67;100755.25;2112073;28;20071;-75
2022/07/21 04:54:15;;;;;;;5.05;1.60;;;;;;;28.34;52.15;100755.47;2112239;28;20084;-74
2022/07/21 04:55:40;;;;;;;8.82;1.73;;;;;;;28.62;51.48;100756.56;2111305;28;20047;-75
2022/07/21 04:57:03;;;;;;;5.95;1.17;;;;;;;28.85;50.86;100761.50;2106277;28;20068;-75
2022/07/21 04:58:26;;;;;;;8.48;1.25;;;;;;;29.00;49.76;100766.03;2111772;28;20051;-74
2022/07/21 04:59:48;;;;;;;2.13;0.80;;;;;;;29.13;49.25;100758.88;2112027;28;20099;-75
2022/07/21 05:01:10;;;;;;;7.80;1.35;;;;;;;29.28;48.71;100749.75;2109643;28;20067;-75
2022/07/21 05:02:32;;;;;;;5.40;1.00;;;;;;;29.31;47.96;100748.69;2111861;28;20468;-75
2022/07/21 05:03:54;;;;;;;5.88;1.17;;;;;;;29.43;47.96;100753.41;2111705;28;20054;-76
2022/07/21 05:05:16;;;;;;;6.72;1.85;;;;;;;29.68;47.45;100755.44;2110594;28;20071;-75
2022/07/21 05:06:38;;;;;;;5.13;1.10;;;;;;;29.84;47.07;100766.22;2114597;28;20099;-76
2022/07/21 05:08:01;;;;;;;9.07;1.35;;;;;;;30.13;46.74;100758.94;2109308;28;20097;-74
2022/07/21 05:09:23;;;;;;;3.03;1.00;;;;;;;30.45;46.28;100760.38;2103382;28;20078;-75
2022/07/21 05:10:47;;;;;;;6.60;1.00;;;;;;;30.48;46.11;100751.97;2103212;28;20126;-75
2022/07/21 05:12:08;;;;;;;9.55;1.40;;;;;;;30.41;46.13;100758.81;2103064;28;20069;-75
2022/07/21 05:13:31;;;;;;;6.90;1.10;;;;;;;30.58;45.53;100749.56;2094509;28;20052;-76
2022/07/21 05:14:53;;;;;;;8.13;1.52;;;;;;;30.44;45.03;100754.06;2103249;28;20072;-76
2022/07/21 05:16:16;;;;;;;4.53;1.30;;;;;;;30.55;44.86;100752.47;2102950;28;20090;-75
2022/07/21 05:17:38;;;;;;;8.43;1.52;;;;;;;30.42;44.52;100746.94;2103338;28;20516;-76
2022/07/21 05:19:01;;;;;;;8.10;1.40;;;;;;;30.41;44.74;100734.31;2105681;28;20052;-75
2022/07/21 05:20:23;;;;;;;7.57;1.30;;;;;;;30.75;44.46;100747.44;2105748;28;20078;-76
2022/07/21 05:21:45;;;;;;;5.68;1.20;;;;;;;30.88;43.74;100748.31;2103322;28;20048;-76
2022/07/21 05:23:08;;;;;;;4.88;1.23;;;;;;;30.91;43.38;100746.38;2094490;28;20041;-76
2022/07/21 05:24:31;;;;;;;7.30;1.45;;;;;;;30.46;43.74;100757.53;2100851;28;20080;-75
2022/07/21 05:25:55;;;;;;;6.63;1.73;;;;;;;30.50;44.30;100750.06;2102650;28;20056;-76
2022/07/21 05:27:18;;;;;;;8.75;1.38;;;;;;;30.81;43.38;100762.47;2103421;28;20047;-76
2022/07/21 05:28:41;;;;;;;8.98;1.40;;;;;;;30.98;42.77;100761.34;2105770;28;20036;-75
2022/07/21 05:30:06;;;;;;;10.25;1.83;;;;;;;31.14;42.44;100760.19;2105966;28;20051;-74
2022/07/21 05:31:28;;;;;;;3.50;1.02;;;;;;;31.45;42.24;100747.09;2101613;28;20163;-75
2022/07/21 05:32:51;;;;;;;5.07;1.48;;;;;;;31.63;41.29;100765.81;2102805;28;20044;-74
2022/07/21 05:34:13;;;;;;;6.32;1.25;;;;;;;31.82;41.06;100759.00;2103310;28;20535;-74
2022/07/21 05:35:36;;;;;;;12.18;1.40;;;;;;;31.95;40.87;100749.81;2105741;28;20044;-75
2022/07/21 05:36:58;;;;;;;4.22;1.15;;;;;;;31.99;40.68;100755.91;2105383;28;20071;-75
2022/07/21 05:38:20;;;;;;;8.80;1.35;;;;;;;32.01;40.22;100763.00;2094786;28;20044;-75
2022/07/21 05:39:43;;;;;;;4.43;1.13;;;;;;;32.05;40.34;100761.78;2100003;28;20075;-75
2022/07/21 05:41:07;;;;;;;9.90;1.50;;;;;;;32.11;40.29;100771.38;2102752;28;20056;-75
2022/07/21 05:42:30;;;;;;;10.32;1.40;;;;;;;32.36;39.50;100768.59;2120282;27;20086;-75
2022/07/21 05:43:52;;;;;;;7.35;1.40;;;;;;;32.18;39.37;100761.78;2106153;28;20505;-75
2022/07/21 05:45:15;;;;;;;10.38;1.52;;;;;;;32.04;40.10;100757.31;2103016;28;20117;-74
2022/07/21 05:46:38;;;;;;;5.05;1.10;;;;;;;32.18;40.00;100764.50;2104856;28;20048;-74
2022/07/21 05:48:00;;;;;;;8.43;1.50;;;;;;;32.37;39.56;100753.94;2106027;28;20075;-75
2022/07/21 05:49:23;;;;;;;7.40;1.38;;;;;;;32.47;39.31;100758.72;2105147;28;20469;-75
2022/07/21 05:50:45;;;;;;;7.32;1.40;;;;;;;32.59;39.40;100763.25;2102805;28;20044;-75
2022/07/21 05:52:08;;;;;;;7.07;1.40;;;;;;;32.56;39.03;100764.34;2102398;28;20131;-74
2022/07/21 05:53:30;;;;;;;3.53;1.10;;;;;;;32.45;39.15;100758.84;2102419;28;20444;-74
2022/07/21 05:54:53;;;;;;;9.52;1.70;;;;;;;32.20;39.57;100759.81;2102694;28;20052;-75
2022/07/21 05:56:17;;;;;;;7.18;1.58;;;;;;;32.18;39.48;100759.03;2093117;28;20040;-74
2022/07/21 05:57:40;;;;;;;8.32;1.42;;;;;;;32.11;39.59;100756.84;2100104;28;20122;-75
2022/07/21 05:59:02;;;;;;;7.30;1.42;;;;;;;31.84;39.92;100759.75;2102377;28;20075;-75
2022/07/21 06:00:25;;;;;;;8.82;1.38;;;;;;;31.24;41.04;100750.34;2102597;28;20040;-75
2022/07/21 06:01:48;;;;;;;8.05;1.67;;;;;;;31.36;40.72;100758.69;2102640;28;20344;-75
2022/07/21 06:03:10;;;;;;;5.78;1.45;;;;;;;31.71;40.24;100754.31;2096489;28;20051;-75
2022/07/21 06:04:32;;;;;;;4.90;1.20;;;;;;;31.87;39.91;100757.69;2099994;28;20541;-75
2022/07/21 06:05:55;;;;;;;6.45;1.23;;;;;;;31.82;40.15;100759.00;2102429;28;20043;-76
2022/07/21 06:07:17;;;;;;;5.70;1.23;;;;;;;32.02;39.88;100759.28;2094030;28;20135;-75
2022/07/21 06:08:41;;;;;;;5.97;1.27;;;;;;;32.20;39.81;100757.06;2107956;28;20051;-75
2022/07/21 06:10:04;;;;;;;4.50;1.58;;;;;;;32.47;39.43;100761.47;2105406;28;20071;-75
2022/07/21 06:11:28;;;;;;;6.85;2.20;;;;;;;32.72;39.17;100759.50;2094450;28;20048;-75
2022/07/21 06:12:50;;;;;;;6.95;1.23;;;;;;;32.75;39.31;100769.34;2108556;28;20975;-75
2022/07/21 06:14:13;;;;;;;9.40;1.95;;;;;;;32.74;39.20;100759.38;2105362;28;20473;-75
2022/07/21 06:15:34;;;;;;;3.97;1.17;;;;;;;32.81;39.01;100757.94;2093562;28;20520;-75
2022/07/21 06:16:57;;;;;;;7.97;1.35;;;;;;;32.34;39.69;100758.78;2099813;28;20110;-74
2022/07/21 06:18:20;;;;;;;6.40;1.40;;;;;;;31.94;40.46;100753.50;2102166;28;20154;-76
2022/07/21 06:19:41;;;;;;;6.32;1.23;;;;;;;31.86;40.81;100752.31;2105210;28;20063;-76
2022/07/21 06:21:04;;;;;;;6.28;1.15;;;;;;;31.74;40.67;100747.75;2093976;28;20053;-74
2022/07/21 06:22:27;;;;;;;9.23;1.20;;;;;;;32.03;40.44;100754.72;2100096;28;20515;-75
2022/07/21 06:23:49;;;;;;;5.25;1.13;;;;;;;32.34;39.88;100756.03;2101769;28;20078;-75
2022/07/21 06:25:12;;;;;;;5.00;1.35;;;;;;;32.49;39.43;100756.75;2102366;28;20150;-76
2022/07/21 06:26:36;;;;;;;4.90;1.27;;;;;;;32.53;38.96;100752.78;2101796;28;20048;-76
2022/07/21 06:27:58;;;;;;;1.92;0.75;;;;;;;32.57;38.84;100757.03;2102121;28;20048;-74